Time;durP1;ratioP1;P1;durP2;ratioP2;P2;SDS_P1;SDS_P2;PMS_P1;PMS_P2;Temp;Humidity;BMP_temperature;BMP_pressure;BME280_temperature;BME280_humidity;BME280_pressure;Samples;Min_cycle;Max_cycle;Signal;HPM_P1;HPM_P2
2023/02/06 00:00:15;;;;;;;;;;;;;;;22.47;37.56;104257.91;7254676;19;153456;-59
2023/02/06 00:02:42;;;;;;;;;;;;;;;22.45;37.56;104252.50;7251022;19;153500;-59
2023/02/06 00:05:09;;;;;;;;;;;;;;;22.46;38.07;104253.34;7248607;19;153339;-59
2023/02/06 00:07:35;;;;;;;;;;;;;;;22.44;37.98;104256.41;7250121;19;153754;-59
2023/02/06 00:10:05;;;;;;;;;;;;;;;22.45;37.89;104263.75;7249901;19;154999;-59
2023/02/06 00:12:32;;;;;;;;;;;;;;;22.43;37.98;104267.94;7248478;19;154168;-59
2023/02/06 00:14:59;;;;;;;;;;;;;;;22.43;38.04;104260.34;7247627;19;153993;-59
2023/02/06 00:17:25;;;;;;;;;;;;;;;22.41;37.80;104268.16;7250193;19;153994;-59
2023/02/06 00:19:52;;;;;;;;;;;;;;;22.38;38.22;104274.28;7261321;19;152457;-59
2023/02/06 00:22:19;;;;;;;;;;;;;;;22.37;37.78;104269.75;7254517;19;156262;-59
2023/02/06 00:24:46;;;;;;;;;;;;;;;22.34;38.18;104269.38;7254695;19;154687;-59
2023/02/06 00:27:13;;;;;;;;;;;;;;;22.31;37.82;104270.69;7255515;19;153605;-59
2023/02/06 00:29:40;;;;;;;;;;;;;;;22.30;37.82;104265.34;7254293;19;153655;-59
2023/02/06 00:32:07;;;;;;;;;;;;;;;22.28;37.83;104264.69;7255018;19;153964;-59
2023/02/06 00:34:33;;;;;;;;;;;;;;;22.29;38.07;104260.78;7254829;19;154414;-59
2023/02/06 00:37:00;;;;;;;;;;;;;;;22.26;38.16;104250.84;7250990;19;153783;-59
2023/02/06 00:39:27;;;;;;;;;;;;;;;22.24;38.23;104247.41;7252892;19;154434;-59
2023/02/06 00:41:54;;;;;;;;;;;;;;;22.21;37.96;104239.47;7264356;19;153764;-59
2023/02/06 00:44:21;;;;;;;;;;;;;;;22.17;38.43;104249.47;7255589;19;155187;-59
2023/02/06 00:46:48;;;;;;;;;;;;;;;22.15;38.40;104249.72;7257582;19;153188;-59
2023/02/06 00:49:15;;;;;;;;;;;;;;;22.15;38.59;104254.50;7255099;19;153783;-59
2023/02/06 00:51:42;;;;;;;;;;;;;;;22.11;38.45;104254.13;7253346;19;153485;-59
2023/02/06 00:54:09;;;;;;;;;;;;;;;22.10;38.48;104259.97;7252981;19;153354;-59
2023/02/06 00:56:36;;;;;;;;;;;;;;;22.10;38.52;104255.22;7252474;19;152258;-59
2023/02/06 00:59:03;;;;;;;;;;;;;;;22.11;38.82;104253.25;7252609;19;154795;-59
2023/02/06 01:01:29;;;;;;;;;;;;;;;22.09;38.58;104255.44;7256266;19;153862;-59
2023/02/06 01:03:56;;;;;;;;;;;;;;;22.06;38.94;104253.13;7262892;19;153587;-59
2023/02/06 01:06:23;;;;;;;;;;;;;;;22.02;38.86;104254.69;7253898;19;154963;-59
2023/02/06 01:08:52;;;;;;;;;;;;;;;22.01;38.85;104244.50;7254301;19;153613;-59
2023/02/06 01:11:20;;;;;;;;;;;;;;;21.97;39.31;104243.28;7255242;19;153342;-59
2023/02/06 01:13:47;;;;;;;;;;;;;;;21.91;39.35;104242.22;7255919;19;153418;-59
2023/02/06 01:16:15;;;;;;;;;;;;;;;21.88;39.04;104248.34;7254663;19;154122;-59
2023/02/06 01:18:42;;;;;;;;;;;;;;;21.86;39.34;104244.03;7252687;19;154231;-59
2023/02/06 01:21:11;;;;;;;;;;;;;;;21.83;39.34;104241.69;7252308;19;153815;-59
2023/02/06 01:23:39;;;;;;;;;;;;;;;21.81;39.36;104238.25;7252893;19;153725;-59
2023/02/06 01:26:07;;;;;;;;;;;;;;;21.81;39.89;104241.94;7262895;19;153745;-59
2023/02/06 01:28:35;;;;;;;;;;;;;;;21.80;39.45;104245.88;7254040;19;153824;-59
2023/02/06 01:31:10;;;;;;;;;;;;;;;21.78;39.73;104233.97;7251305;19;152562;-59
2023/02/06 01:33:37;;;;;;;;;;;;;;;21.76;39.54;104232.50;7255194;19;153809;-59
2023/02/06 01:36:04;;;;;;;;;;;;;;;21.74;39.45;104233.59;7251326;19;155773;-59
2023/02/06 01:38:30;;;;;;;;;;;;;;;21.70;39.76;104237.97;7251375;19;154784;-59
2023/02/06 01:40:58;;;;;;;;;;;;;;;21.70;39.47;104228.66;7253979;19;155346;-59
2023/02/06 01:43:27;;;;;;;;;;;;;;;21.67;39.67;104229.13;7256325;19;153454;-59
2023/02/06 01:45:54;;;;;;;;;;;;;;;21.63;39.42;104233.50;7253403;19;155486;-59
2023/02/06 01:48:28;;;;;;;;;;;;;;;21.64;39.86;104229.59;7262577;19;154914;-59
2023/02/06 01:50:56;;;;;;;;;;;;;;;21.62;39.41;104220.56;7251484;19;153816;-59
2023/02/06 01:53:23;;;;;;;;;;;;;;;21.56;39.85;104211.09;7253021;19;153383;-59
2023/02/06 01:55:52;;;;;;;;;;;;;;;21.54;39.45;104210.47;7250962;19;155037;-59
2023/02/06 01:58:23;;;;;;;;;;;;;;;21.51;39.45;104225.00;7251655;19;154711;-59
2023/02/06 02:00:50;;;;;;;;;;;;;;;21.47;39.66;104229.41;7252185;19;153760;-59
2023/02/06 02:03:16;;;;;;;;;;;;;;;21.48;39.83;104219.00;7254535;19;153685;-59
2023/02/06 02:05:46;;;;;;;;;;;;;;;21.47;39.63;104215.31;7250368;19;154475;-59
2023/02/06 02:08:15;;;;;;;;;;;;;;;21.42;40.01;104215.16;7262429;19;153095;-59
2023/02/06 02:10:43;;;;;;;;;;;;;;;21.38;40.03;104225.19;7249532;19;153508;-58
2023/02/06 02:13:09;;;;;;;;;;;;;;;21.37;40.05;104219.78;7254725;19;153280;-59
2023/02/06 02:15:39;;;;;;;;;;;;;;;21.30;40.23;104212.25;7252840;19;152756;-59
2023/02/06 02:18:09;;;;;;;;;;;;;;;21.33;39.93;104212.91;7252675;19;154492;-58
2023/02/06 02:20:37;;;;;;;;;;;;;;;21.27;39.86;104209.94;7251386;19;152323;-59
2023/02/06 02:23:07;;;;;;;;;;;;;;;21.20;40.12;104205.50;7251783;19;154308;-59
2023/02/06 02:25:37;;;;;;;;;;;;;;;21.23;39.94;104214.31;7251642;19;155098;-59
2023/02/06 02:28:07;;;;;;;;;;;;;;;21.20;40.15;104219.56;7251798;19;153655;-59
2023/02/06 02:30:37;;;;;;;;;;;;;;;21.18;40.20;104218.91;7260668;19;154123;-59
2023/02/06 02:33:10;;;;;;;;;;;;;;;21.19;39.97;104212.19;7249894;19;154187;-59
2023/02/06 02:35:45;;;;;;;;;;;;;;;21.14;39.94;104212.91;7252655;19;154037;-59
2023/02/06 02:38:15;;;;;;;;;;;;;;;21.09;40.03;104221.13;7248915;19;154680;-59
2023/02/06 02:40:46;;;;;;;;;;;;;;;21.09;40.21;104209.88;7250679;19;154643;-59
2023/02/06 02:43:16;;;;;;;;;;;;;;;21.05;40.09;104205.81;7252547;19;154995;-59
2023/02/06 02:45:46;;;;;;;;;;;;;;;21.04;40.23;104211.66;7246516;19;153687;-59
2023/02/06 02:48:15;;;;;;;;;;;;;;;21.00;40.28;104204.81;7251504;19;154183;-58
2023/02/06 02:50:42;;;;;;;;;;;;;;;20.98;40.51;104207.88;7250069;19;154690;-59
2023/02/06 02:53:10;;;;;;;;;;;;;;;20.99;40.51;104192.69;7256740;19;153725;-59
2023/02/06 02:55:36;;;;;;;;;;;;;;;20.96;40.11;104197.94;7249566;19;154548;-59
2023/02/06 02:58:06;;;;;;;;;;;;;;;20.95;40.33;104190.56;7248045;19;155699;-59
2023/02/06 03:00:35;;;;;;;;;;;;;;;20.95;40.18;104193.38;7250464;19;154023;-59
2023/02/06 03:03:03;;;;;;;;;;;;;;;20.89;40.12;104195.19;7251114;19;152298;-59
2023/02/06 03:05:32;;;;;;;;;;;;;;;20.85;40.40;104186.34;7247996;19;152725;-59
2023/02/06 03:07:59;;;;;;;;;;;;;;;20.86;40.57;104187.22;7249893;19;153668;-59
2023/02/06 03:10:31;;;;;;;;;;;;;;;20.78;40.34;104190.31;7249803;19;153773;-60
2023/02/06 03:13:00;;;;;;;;;;;;;;;20.77;40.53;104172.59;7249622;19;154148;-59
2023/02/06 03:15:30;;;;;;;;;;;;;;;20.74;40.33;104170.25;7259667;19;153155;-59
2023/02/06 03:18:00;;;;;;;;;;;;;;;20.72;40.49;104166.81;7248510;19;154062;-59
2023/02/06 03:20:27;;;;;;;;;;;;;;;20.72;40.70;104168.75;7251235;19;153959;-59
2023/02/06 03:22:55;;;;;;;;;;;;;;;20.72;40.43;104180.00;7250479;19;154270;-59
2023/02/06 03:25:27;;;;;;;;;;;;;;;20.67;40.60;104165.81;7251354;19;153267;-57
2023/02/06 03:27:54;;;;;;;;;;;;;;;20.65;40.73;104162.34;7252191;19;154012;-59
2023/02/06 03:30:22;;;;;;;;;;;;;;;20.63;40.53;104165.38;7250102;19;153603;-61
2023/02/06 03:32:53;;;;;;;;;;;;;;;20.60;40.36;104167.81;7247328;19;153764;-59
2023/02/06 03:35:21;;;;;;;;;;;;;;;20.58;40.60;104167.19;7248841;19;153457;-60
2023/02/06 03:37:48;;;;;;;;;;;;;;;20.52;40.51;104151.25;7254314;19;154171;-59
2023/02/06 03:40:16;;;;;;;;;;;;;;;20.51;40.55;104158.81;7248806;19;152570;-60
2023/02/06 03:42:47;;;;;;;;;;;;;;;20.47;40.79;104162.31;7248809;19;154754;-60
2023/02/06 03:45:16;;;;;;;;;;;;;;;20.46;40.54;104167.06;7248098;19;154983;-59
2023/02/06 03:47:44;;;;;;;;;;;;;;;20.42;40.89;104154.56;7249770;19;157054;-59
2023/02/06 03:50:11;;;;;;;;;;;;;;;20.38;40.71;104145.75;7249153;19;154051;-59
2023/02/06 03:52:40;;;;;;;;;;;;;;;20.36;40.79;104133.03;7247517;19;154413;-58
2023/02/06 03:55:09;;;;;;;;;;;;;;;20.33;39.09;104148.38;7255773;19;154890;-58
2023/02/06 03:57:41;;;;;;;;;;;;;;;20.31;39.51;104147.75;7254204;19;154429;-59
2023/02/06 04:00:08;;;;;;;;;;;;;;;20.39;40.48;104146.63;7264139;19;153503;-58
2023/02/06 04:02:35;;;;;;;;;;;;;;;20.30;39.04;104142.38;7254828;19;155194;-59
2023/02/06 04:05:02;;;;;;;;;;;;;;;20.33;40.35;104151.19;7254946;19;155405;-59
2023/02/06 04:07:32;;;;;;;;;;;;;;;20.30;40.60;104150.81;7256771;19;154248;-59
2023/02/06 04:09:58;;;;;;;;;;;;;;;20.24;40.46;104155.34;7255634;19;153762;-59
2023/02/06 04:12:26;;;;;;;;;;;;;;;20.28;40.65;104151.00;7257018;19;153181;-59
2023/02/06 04:14:53;;;;;;;;;;;;;;;20.25;40.55;104144.97;7253483;19;152601;-59
2023/02/06 04:17:20;;;;;;;;;;;;;;;20.23;40.18;104141.53;7254752;19;155918;-59
2023/02/06 04:20:07;;;;;;;;;;;;;;;20.22;40.50;104151.91;7260794;19;154043;-59
2023/02/06 04:22:34;;;;;;;;;;;;;;;20.18;40.65;104166.63;7255937;19;153535;-59
2023/02/06 04:25:02;;;;;;;;;;;;;;;20.19;40.60;104169.22;7254798;19;153324;-59
2023/02/06 04:27:31;;;;;;;;;;;;;;;20.16;40.57;104157.56;7254684;19;153303;-59
2023/02/06 04:29:57;;;;;;;;;;;;;;;20.08;40.65;104152.25;7255907;19;153439;-59
2023/02/06 04:32:24;;;;;;;;;;;;;;;20.09;40.62;104149.19;7253580;19;154249;-59
2023/02/06 04:34:51;;;;;;;;;;;;;;;20.11;40.92;104148.97;7254825;19;153301;-59
2023/02/06 04:37:18;;;;;;;;;;;;;;;20.04;40.68;104146.22;7253700;19;154190;-58
2023/02/06 04:39:45;;;;;;;;;;;;;;;20.04;40.64;104151.81;7253134;19;153044;-58
2023/02/06 04:42:12;;;;;;;;;;;;;;;20.03;40.73;104158.53;7261636;19;153039;-59
2023/02/06 04:44:39;;;;;;;;;;;;;;;20.02;40.93;104153.16;7253732;19;153461;-58
2023/02/06 04:47:06;;;;;;;;;;;;;;;20.04;40.89;104150.97;7253621;19;152102;-58
2023/02/06 04:49:35;;;;;;;;;;;;;;;20.05;40.76;104149.88;7255624;19;154931;-58
2023/02/06 04:52:02;;;;;;;;;;;;;;;20.01;40.55;104143.88;7250799;19;153064;-59
2023/02/06 04:54:29;;;;;;;;;;;;;;;19.97;40.81;104139.78;7253948;19;154259;-59
2023/02/06 04:56:58;;;;;;;;;;;;;;;19.98;40.83;104135.91;7252236;19;153676;-58
2023/02/06 04:59:24;;;;;;;;;;;;;;;19.94;41.06;104126.22;7254850;19;154256;-58
2023/02/06 05:01:51;;;;;;;;;;;;;;;19.96;40.74;104122.09;7255002;19;154016;-58
2023/02/06 05:04:18;;;;;;;;;;;;;;;19.94;41.20;104121.44;7259514;19;154058;-59
2023/02/06 05:06:45;;;;;;;;;;;;;;;19.92;41.26;104129.25;7253990;19;156131;-58
2023/02/06 05:09:11;;;;;;;;;;;;;;;19.93;41.23;104121.69;7255844;19;153311;-58
2023/02/06 05:11:38;;;;;;;;;;;;;;;19.92;41.20;104126.44;7250984;19;153998;-58
2023/02/06 05:14:05;;;;;;;;;;;;;;;19.87;41.53;104119.78;7253691;19;152727;-58
2023/02/06 05:16:32;;;;;;;;;;;;;;;19.85;41.52;104131.22;7255122;19;153401;-57
2023/02/06 05:18:58;;;;;;;;;;;;;;;19.83;41.23;104119.38;7254592;19;155312;-58
2023/02/06 05:21:26;;;;;;;;;;;;;;;19.83;41.63;104119.38;7252498;19;153253;-58
2023/02/06 05:23:53;;;;;;;;;;;;;;;19.78;41.45;104110.78;7253696;19;153965;-58
2023/02/06 05:26:20;;;;;;;;;;;;;;;19.80;41.34;104114.25;7259937;19;153732;-58
2023/02/06 05:28:47;;;;;;;;;;;;;;;19.79;41.20;104123.72;7252968;19;153587;-58
2023/02/06 05:31:18;;;;;;;;;;;;;;;19.76;41.62;104115.75;7255305;19;155275;-58
2023/02/06 05:33:47;;;;;;;;;;;;;;;19.78;41.67;104107.97;7252789;19;152325;-58
2023/02/06 05:36:18;;;;;;;;;;;;;;;19.74;41.92;104103.91;7252829;19;153050;-58
2023/02/06 05:38:45;;;;;;;;;;;;;;;19.73;41.98;104110.59;7250199;19;154004;-58
2023/02/06 05:41:12;;;;;;;;;;;;;;;19.78;41.79;104110.78;7253633;19;153616;-58
2023/02/06 05:43:39;;;;;;;;;;;;;;;19.81;42.25;104113.13;7252064;19;152618;-58
2023/02/06 05:46:06;;;;;;;;;;;;;;;19.86;42.12;104102.09;7252094;19;154039;-58
2023/02/06 05:48:35;;;;;;;;;;;;;;;19.92;42.25;104101.19;7261831;19;151990;-57
2023/02/06 05:51:02;;;;;;;;;;;;;;;19.96;42.22;104096.84;7251761;19;154278;-58
2023/02/06 05:53:29;;;;;;;;;;;;;;;20.02;42.44;104099.81;7252252;19;153475;-58
2023/02/06 05:55:56;;;;;;;;;;;;;;;20.08;42.28;104087.69;7251925;19;154058;-58
2023/02/06 05:58:23;;;;;;;;;;;;;;;20.12;42.59;104094.56;7250888;19;153693;-57
2023/02/06 06:00:49;;;;;;;;;;;;;;;20.17;42.67;104087.16;7254196;19;153298;-58
2023/02/06 06:03:16;;;;;;;;;;;;;;;20.21;42.32;104096.84;7254555;19;152956;-57
2023/02/06 06:05:44;;;;;;;;;;;;;;;20.26;42.21;104094.19;7251638;19;154477;-58
2023/02/06 06:08:11;;;;;;;;;;;;;;;20.33;42.49;104092.22;7252405;19;154281;-58
2023/02/06 06:10:38;;;;;;;;;;;;;;;20.37;42.64;104075.78;7258414;19;154548;-58
2023/02/06 06:13:07;;;;;;;;;;;;;;;20.43;42.11;104063.63;7250401;19;154563;-58
2023/02/06 06:15:34;;;;;;;;;;;;;;;20.49;42.40;104079.53;7249852;19;155953;-58
2023/02/06 06:18:01;;;;;;;;;;;;;;;20.53;41.94;104085.56;7251657;19;153899;-58
2023/02/06 06:20:28;;;;;;;;;;;;;;;20.58;42.24;104085.72;7252633;19;154007;-58
2023/02/06 06:22:55;;;;;;;;;;;;;;;20.63;41.80;104086.72;7251851;19;153890;-58
2023/02/06 06:25:22;;;;;;;;;;;;;;;20.68;42.23;104089.69;7251619;19;156633;-58
2023/02/06 06:27:49;;;;;;;;;;;;;;;20.73;42.03;104095.47;7253758;19;152891;-58
2023/02/06 06:30:15;;;;;;;;;;;;;;;20.77;41.93;104091.09;7259414;19;154908;-58
2023/02/06 06:32:42;;;;;;;;;;;;;;;20.82;41.46;104082.84;7255025;19;153458;-58
2023/02/06 06:35:09;;;;;;;;;;;;;;;20.87;41.59;104076.50;7251725;19;155626;-58
2023/02/06 06:37:35;;;;;;;;;;;;;;;20.94;42.00;104079.25;7252489;19;153190;-58
2023/02/06 06:40:02;;;;;;;;;;;;;;;20.98;41.61;104078.56;7252476;19;153818;-58
2023/02/06 06:42:29;;;;;;;;;;;;;;;21.03;41.85;104072.22;7252533;19;153973;-58
2023/02/06 06:44:56;;;;;;;;;;;;;;;21.07;41.54;104077.13;7249519;19;153760;-58
2023/02/06 06:47:23;;;;;;;;;;;;;;;21.11;41.28;104066.28;7250252;19;155141;-58
2023/02/06 06:49:50;;;;;;;;;;;;;;;21.13;41.06;104064.97;7252724;19;154014;-58
2023/02/06 06:52:16;;;;;;;;;;;;;;;21.17;40.57;104074.63;7257530;19;154144;-58
2023/02/06 06:54:51;;;;;;;;;;;;;;;21.21;40.53;104077.84;7252034;19;154417;-58
2023/02/06 06:57:19;;;;;;;;;;;;;;;21.23;40.24;104072.84;7250566;19;156372;-58
2023/02/06 06:59:45;;;;;;;;;;;;;;;21.26;40.40;104059.16;7252272;19;153513;-58
2023/02/06 07:02:12;;;;;;;;;;;;;;;21.28;40.22;104062.59;7251058;19;153854;-58
2023/02/06 07:04:39;;;;;;;;;;;;;;;21.30;40.15;104071.63;7250102;19;156030;-58
2023/02/06 07:07:07;;;;;;;;;;;;;;;21.33;40.45;104069.47;7250218;19;153783;-58
2023/02/06 07:09:34;;;;;;;;;;;;;;;21.35;39.89;104067.28;7252749;19;154196;-58
2023/02/06 07:12:00;;;;;;;;;;;;;;;21.37;40.17;104063.13;7247031;19;153737;-58
2023/02/06 07:14:27;;;;;;;;;;;;;;;21.39;40.21;104062.88;7257402;19;153597;-59
2023/02/06 07:16:55;;;;;;;;;;;;;;;21.37;39.77;104051.00;7251726;19;153704;-58
2023/02/06 07:19:21;;;;;;;;;;;;;;;21.40;40.47;104039.25;7248350;19;152353;-59
2023/02/06 07:21:48;;;;;;;;;;;;;;;21.42;40.57;104046.38;7250064;19;154280;-59
2023/02/06 07:24:15;;;;;;;;;;;;;;;21.42;40.07;104049.19;7248203;19;153401;-59
2023/02/06 07:26:42;;;;;;;;;;;;;;;21.46;39.93;104058.00;7251971;19;154048;-59
2023/02/06 07:29:09;;;;;;;;;;;;;;;21.43;40.45;104053.72;7258381;19;154073;-58
2023/02/06 07:31:36;;;;;;;;;;;;;;;21.40;39.00;104042.06;7254772;19;155012;-58
2023/02/06 07:34:05;;;;;;;;;;;;;;;21.34;38.65;104040.25;7257191;19;152568;-58
2023/02/06 07:36:32;;;;;;;;;;;;;;;21.28;38.61;104045.72;7262511;19;154353;-57
2023/02/06 07:39:00;;;;;;;;;;;;;;;21.27;38.04;104043.13;7255394;19;152938;-57
2023/02/06 07:41:27;;;;;;;;;;;;;;;21.26;37.91;104039.47;7256120;19;154152;-57
2023/02/06 07:43:54;;;;;;;;;;;;;;;21.23;38.20;104037.13;7257845;19;155472;-58
2023/02/06 07:46:21;;;;;;;;;;;;;;;20.82;34.39;104035.06;7256908;19;152883;-58
2023/02/06 07:48:48;;;;;;;;;;;;;;;20.38;33.58;104033.41;7256433;19;153079;-58
2023/02/06 07:51:15;;;;;;;;;;;;;;;19.99;33.80;104028.16;7253964;19;155497;-58
2023/02/06 07:53:42;;;;;;;;;;;;;;;19.89;34.53;104031.50;7257344;19;153769;-58
2023/02/06 07:56:11;;;;;;;;;;;;;;;20.31;34.37;104028.94;7257231;19;153642;-58
2023/02/06 07:58:38;;;;;;;;;;;;;;;20.49;35.16;104034.59;7260550;19;153667;-58
2023/02/06 08:01:05;;;;;;;;;;;;;;;20.59;35.65;104036.84;7257145;19;152900;-58
2023/02/06 08:03:32;;;;;;;;;;;;;;;20.65;35.63;104036.78;7256509;19;153677;-58
2023/02/06 08:05:59;;;;;;;;;;;;;;;20.70;35.95;104025.72;7256924;19;153325;-58
2023/02/06 08:08:26;;;;;;;;;;;;;;;20.74;36.05;104024.16;7256463;19;155648;-58
2023/02/06 08:10:53;;;;;;;;;;;;;;;20.78;36.22;104028.19;7255234;19;154384;-58
2023/02/06 08:13:20;;;;;;;;;;;;;;;20.81;36.11;104029.66;7254143;19;154494;-58
2023/02/06 08:15:46;;;;;;;;;;;;;;;20.85;35.93;104019.66;7256565;19;154982;-58
2023/02/06 08:18:15;;;;;;;;;;;;;;;20.87;36.40;104025.91;7254507;19;153395;-58
2023/02/06 08:20:42;;;;;;;;;;;;;;;20.91;36.03;104037.53;7263119;19;153743;-58
2023/02/06 08:23:09;;;;;;;;;;;;;;;20.94;36.57;104032.31;7253490;19;154723;-59
2023/02/06 08:25:36;;;;;;;;;;;;;;;20.98;36.33;104030.75;7255428;19;152475;-58
2023/02/06 08:28:04;;;;;;;;;;;;;;;21.01;36.28;104041.53;7254229;19;154102;-58
2023/02/06 08:30:33;;;;;;;;;;;;;;;21.05;36.58;104030.66;7253810;19;155172;-58
2023/02/06 08:33:00;;;;;;;;;;;;;;;21.08;36.42;104028.22;7253735;19;154005;-58
2023/02/06 08:35:27;;;;;;;;;;;;;;;21.09;36.16;104034.72;7256096;19;155411;-58
2023/02/06 08:37:54;;;;;;;;;;;;;;;21.09;36.49;104041.19;7254539;19;154836;-58
2023/02/06 08:40:21;;;;;;;;;;;;;;;21.15;37.11;104031.00;7261847;19;153810;-58
2023/02/06 08:42:49;;;;;;;;;;;;;;;21.19;36.82;104029.41;7253807;19;153027;-58
2023/02/06 08:45:17;;;;;;;;;;;;;;;21.18;36.63;104034.19;7254829;19;155947;-58
2023/02/06 08:47:44;;;;;;;;;;;;;;;21.19;36.15;104037.84;7255976;19;154538;-58
2023/02/06 08:50:11;;;;;;;;;;;;;;;21.21;36.11;104041.28;7254763;19;153364;-58
2023/02/06 08:52:41;;;;;;;;;;;;;;;21.19;36.45;104038.72;7254430;19;153397;-58
2023/02/06 08:55:08;;;;;;;;;;;;;;;21.21;36.11;104035.66;7254132;19;155393;-58
2023/02/06 08:57:35;;;;;;;;;;;;;;;21.20;35.99;104043.25;7254765;19;154972;-58
2023/02/06 09:00:02;;;;;;;;;;;;;;;21.20;36.16;104048.88;7252762;19;154489;-58
2023/02/06 09:02:29;;;;;;;;;;;;;;;21.19;35.91;104041.53;7262110;19;153195;-58
2023/02/06 09:04:56;;;;;;;;;;;;;;;21.18;36.16;104053.00;7255035;19;153738;-58
2023/02/06 09:07:23;;;;;;;;;;;;;;;21.17;36.22;104054.09;7254871;19;152294;-58
2023/02/06 09:09:50;;;;;;;;;;;;;;;21.15;35.92;104056.28;7254793;19;154902;-59
2023/02/06 09:12:17;;;;;;;;;;;;;;;21.15;36.18;104057.16;7256941;19;153929;-58
2023/02/06 09:14:44;;;;;;;;;;;;;;;21.14;35.81;104054.56;7255954;19;154901;-58
2023/02/06 09:17:11;;;;;;;;;;;;;;;21.11;35.62;104044.63;7252822;19;154817;-58
2023/02/06 09:19:38;;;;;;;;;;;;;;;21.11;35.60;104041.81;7253001;19;152747;-58
2023/02/06 09:22:07;;;;;;;;;;;;;;;21.09;36.01;104054.38;7252590;19;153538;-58
2023/02/06 09:24:34;;;;;;;;;;;;;;;21.09;35.72;104043.13;7260752;19;153530;-58
2023/02/06 09:27:00;;;;;;;;;;;;;;;21.09;36.14;104041.19;7253073;19;154386;-58
2023/02/06 09:29:31;;;;;;;;;;;;;;;21.12;35.60;104053.94;7252813;19;153373;-58
2023/02/06 09:32:00;;;;;;;;;;;;;;;21.13;35.95;104041.59;7252802;19;152989;-58
2023/02/06 09:34:27;;;;;;;;;;;;;;;21.17;35.78;104043.69;7254787;19;153881;-58
2023/02/06 09:36:55;;;;;;;;;;;;;;;21.19;35.79;104038.72;7249733;19;154063;-58
2023/02/06 09:39:23;;;;;;;;;;;;;;;21.22;35.54;104045.81;7256044;19;154620;-58
2023/02/06 09:41:53;;;;;;;;;;;;;;;21.25;35.72;104045.34;7254001;19;153908;-58
2023/02/06 09:44:21;;;;;;;;;;;;;;;21.28;35.87;104031.66;7252078;19;154938;-58
2023/02/06 09:46:51;;;;;;;;;;;;;;;21.31;35.38;104050.00;7261540;19;154922;-58
2023/02/06 09:49:21;;;;;;;;;;;;;;;21.32;35.75;104039.59;7252826;19;155484;-58
2023/02/06 09:51:51;;;;;;;;;;;;;;;21.32;35.65;104040.47;7251840;19;152918;-58
2023/02/06 09:54:21;;;;;;;;;;;;;;;21.33;35.59;104035.72;7255988;19;153669;-58
2023/02/06 09:56:51;;;;;;;;;;;;;;;21.32;35.38;104040.47;7250904;19;154015;-58
2023/02/06 09:59:21;;;;;;;;;;;;;;;21.36;35.49;104040.84;7252790;19;152884;-58
2023/02/06 10:01:51;;;;;;;;;;;;;;;21.34;35.44;104037.44;7252720;19;152550;-57
2023/02/06 10:04:21;;;;;;;;;;;;;;;21.35;34.89;104041.97;7252924;19;153326;-58
2023/02/06 10:06:49;;;;;;;;;;;;;;;21.33;35.08;104056.25;7250745;19;153613;-57
2023/02/06 10:09:17;;;;;;;;;;;;;;;21.33;34.96;104056.25;7258969;19;154562;-58
2023/02/06 10:11:48;;;;;;;;;;;;;;;21.33;35.33;104053.44;7251149;19;153992;-58
2023/02/06 10:14:21;;;;;;;;;;;;;;;21.33;35.00;104050.63;7250435;19;154261;-58
2023/02/06 10:16:52;;;;;;;;;;;;;;;21.33;34.78;104061.88;7250887;19;155191;-58
2023/02/06 10:19:20;;;;;;;;;;;;;;;21.32;34.80;104059.28;7250579;19;153456;-58
2023/02/06 10:21:50;;;;;;;;;;;;;;;21.32;35.24;104065.78;7250544;19;153942;-57
2023/02/06 10:24:20;;;;;;;;;;;;;;;21.30;35.27;104059.56;7250802;19;154233;-58
2023/02/06 10:26:49;;;;;;;;;;;;;;;21.28;35.47;104062.59;7251050;19;152900;-58
2023/02/06 10:29:20;;;;;;;;;;;;;;;21.27;34.89;104063.69;7253679;19;155034;-58
2023/02/06 10:31:49;;;;;;;;;;;;;;;21.27;34.66;104057.19;7259010;19;153847;-58
2023/02/06 10:34:19;;;;;;;;;;;;;;;21.24;34.79;104049.25;7253089;19;153382;-58
2023/02/06 10:36:47;;;;;;;;;;;;;;;21.23;35.03;104044.72;7250447;19;153463;-58
2023/02/06 10:39:14;;;;;;;;;;;;;;;21.22;34.93;104040.19;7250277;19;153729;-57
2023/02/06 10:41:44;;;;;;;;;;;;;;;21.20;35.05;104048.88;7250828;19;155242;-57
2023/02/06 10:44:14;;;;;;;;;;;;;;;21.18;34.90;104041.75;7251304;19;153937;-58
2023/02/06 10:46:44;;;;;;;;;;;;;;;21.15;35.15;104045.91;7253518;19;154479;-58
2023/02/06 10:49:19;;;;;;;;;;;;;;;21.13;34.94;104039.66;7252897;19;154744;-58
2023/02/06 10:51:51;;;;;;;;;;;;;;;21.13;34.72;104038.78;7255917;19;154698;-58
2023/02/06 10:54:21;;;;;;;;;;;;;;;21.10;35.28;104036.44;7251480;19;153626;-57
2023/02/06 10:56:50;;;;;;;;;;;;;;;21.10;34.81;104036.44;7248553;19;153201;-58
2023/02/06 10:59:21;;;;;;;;;;;;;;;21.08;34.91;104035.78;7253431;19;153985;-58
2023/02/06 11:01:50;;;;;;;;;;;;;;;21.04;35.20;104026.97;7250163;19;153404;-58
2023/02/06 11:04:32;;;;;;;;;;;;;;;21.05;34.83;104030.66;7250035;19;154865;-57
2023/02/06 11:07:03;;;;;;;;;;;;;;;21.03;35.24;104032.88;7248894;19;153088;-58
2023/02/06 11:09:30;;;;;;;;;;;;;;;21.02;35.30;104028.31;7252466;19;153996;-58
2023/02/06 11:11:57;;;;;;;;;;;;;;;21.00;34.82;104022.06;7247462;19;153716;-58
2023/02/06 11:14:30;;;;;;;;;;;;;;;20.98;35.32;104013.03;7255936;19;153441;-58
2023/02/06 11:16:59;;;;;;;;;;;;;;;20.96;35.08;104009.59;7249700;19;153206;-58
2023/02/06 11:19:29;;;;;;;;;;;;;;;20.95;34.94;104002.25;7251949;19;153535;-58
2023/02/06 11:21:56;;;;;;;;;;;;;;;20.92;35.32;104000.78;7248958;19;154711;-59
2023/02/06 11:24:24;;;;;;;;;;;;;;;20.92;35.05;103994.28;7249955;19;153446;-58
2023/02/06 11:26:53;;;;;;;;;;;;;;;20.90;35.22;103985.22;7251138;19;153284;-59
2023/02/06 11:29:25;;;;;;;;;;;;;;;20.89;35.31;103981.59;7246894;19;154461;-58
2023/02/06 11:31:55;;;;;;;;;;;;;;;20.89;35.58;103975.09;7251393;19;154455;-59
2023/02/06 11:34:26;;;;;;;;;;;;;;;20.95;35.32;103969.38;7250750;19;153542;-58
2023/02/06 11:36:54;;;;;;;;;;;;;;;20.91;35.45;103979.38;7257644;19;155494;-58
2023/02/06 11:39:21;;;;;;;;;;;;;;;20.93;35.78;103974.41;7250384;19;154490;-58
2023/02/06 11:41:51;;;;;;;;;;;;;;;20.92;36.14;103978.28;7249526;19;154533;-58
2023/02/06 11:44:18;;;;;;;;;;;;;;;20.89;35.49;103961.91;7248475;19;153782;-57
2023/02/06 11:46:45;;;;;;;;;;;;;;;20.92;35.54;103960.56;7251719;19;154446;-58
2023/02/06 11:49:15;;;;;;;;;;;;;;;20.95;35.24;103957.28;7250817;19;153114;-58
2023/02/06 11:51:45;;;;;;;;;;;;;;;20.96;35.20;103950.56;7247964;19;153798;-58
2023/02/06 11:54:20;;;;;;;;;;;;;;;20.94;35.19;103953.59;7250394;19;154291;-58
2023/02/06 11:56:50;;;;;;;;;;;;;;;20.95;35.54;103943.22;7251266;19;155582;-57
2023/02/06 11:59:21;;;;;;;;;;;;;;;20.96;35.72;103937.38;7257040;19;153971;-60
2023/02/06 12:01:49;;;;;;;;;;;;;;;20.94;36.87;103936.72;7250039;19;153478;-59
2023/02/06 12:04:22;;;;;;;;;;;;;;;20.84;38.42;103942.94;7247928;19;153985;-57
2023/02/06 12:06:53;;;;;;;;;;;;;;;20.88;40.32;103928.41;7249477;19;153548;-57
2023/02/06 12:09:20;;;;;;;;;;;;;;;20.82;39.85;103922.66;7249337;19;154333;-56
2023/02/06 12:11:47;;;;;;;;;;;;;;;20.86;39.24;103929.50;7243870;19;153913;-57
2023/02/06 12:14:19;;;;;;;;;;;;;;;20.90;39.42;103923.41;7250056;19;153090;-57
2023/02/06 12:16:46;;;;;;;;;;;;;;;20.90;38.98;103926.19;7254134;19;153356;-56
2023/02/06 12:19:16;;;;;;;;;;;;;;;20.92;37.88;103915.59;7255925;19;154314;-57
2023/02/06 12:21:46;;;;;;;;;;;;;;;20.92;37.50;103901.53;7264349;19;154766;-57
2023/02/06 12:24:13;;;;;;;;;;;;;;;20.94;37.62;103902.19;7255924;19;154570;-56
2023/02/06 12:26:41;;;;;;;;;;;;;;;20.97;37.09;103904.50;7255621;19;153865;-57
2023/02/06 12:29:11;;;;;;;;;;;;;;;20.99;37.25;103905.94;7254092;19;153824;-56
2023/02/06 12:31:40;;;;;;;;;;;;;;;21.02;37.29;103899.88;7252831;19;154323;-56